createdAt,value
2022-12-25T00:00:20.881Z,152.10
2022-12-25T00:01:17.907Z,157.40
2022-12-25T00:02:18.029Z,159.00
2022-12-25T00:03:18.010Z,177.30
2022-12-25T00:04:17.890Z,163.80
2022-12-25T00:05:17.878Z,166.70
2022-12-25T00:06:17.858Z,164.00
2022-12-25T00:07:17.848Z,166.60
2022-12-25T00:08:17.839Z,176.20
2022-12-25T00:09:17.829Z,179.70
2022-12-25T00:10:17.814Z,169.90
2022-12-25T00:11:17.829Z,176.80
2022-12-25T00:12:17.796Z,179.90
2022-12-25T00:13:17.809Z,185.30
2022-12-25T00:14:17.797Z,172.50
2022-12-25T00:15:17.762Z,173.10
2022-12-25T00:16:17.800Z,164.40
2022-12-25T00:17:17.747Z,176.70
2022-12-25T00:18:17.742Z,170.50
2022-12-25T00:19:17.723Z,176.30
2022-12-25T00:20:17.716Z,183.00
2022-12-25T00:21:17.738Z,177.90
2022-12-25T00:22:17.695Z,170.30
2022-12-25T00:23:17.692Z,177.10
2022-12-25T00:24:17.672Z,185.10
2022-12-25T00:25:17.664Z,179.50
2022-12-25T00:26:17.709Z,173.50
2022-12-25T00:27:17.648Z,177.70
2022-12-25T00:28:17.632Z,180.10
2022-12-25T00:29:17.648Z,178.00
2022-12-25T00:30:17.612Z,187.50
2022-12-25T00:31:17.648Z,176.50
2022-12-25T00:32:17.594Z,170.30
2022-12-25T00:33:17.580Z,173.70
2022-12-25T00:34:17.624Z,188.00
2022-12-25T00:35:17.575Z,191.70
2022-12-25T00:36:17.547Z,186.60
2022-12-25T00:37:17.545Z,189.20
2022-12-25T00:38:17.535Z,186.60
2022-12-25T00:39:17.516Z,208.30
2022-12-25T00:40:17.507Z,189.10
2022-12-25T00:41:17.497Z,192.00
2022-12-25T00:42:17.490Z,194.20
2022-12-25T00:43:17.486Z,197.90
2022-12-25T00:44:17.462Z,197.50
2022-12-25T00:45:17.455Z,190.30
2022-12-25T00:46:17.545Z,215.60
2022-12-25T00:47:17.489Z,207.90
2022-12-25T00:48:17.436Z,200.20
2022-12-25T00:49:17.409Z,192.30
2022-12-25T00:50:17.403Z,193.20
2022-12-25T00:51:17.388Z,212.30
2022-12-25T00:52:17.381Z,192.00
2022-12-25T00:53:17.369Z,200.00
2022-12-25T00:54:17.377Z,197.20
2022-12-25T00:55:17.350Z,202.10
2022-12-25T00:56:17.337Z,200.30
2022-12-25T00:57:17.326Z,196.90
2022-12-25T00:58:17.318Z,196.00
2022-12-25T00:59:17.303Z,215.40
2022-12-25T01:00:17.291Z,207.70
2022-12-25T01:01:17.415Z,190.40
2022-12-25T01:02:17.477Z,199.70
2022-12-25T01:03:17.324Z,199.20
2022-12-25T01:04:17.250Z,195.00
2022-12-25T01:05:17.246Z,195.60
2022-12-25T01:06:17.230Z,209.00
2022-12-25T01:07:17.218Z,197.60
2022-12-25T01:08:17.205Z,200.70
2022-12-25T01:09:17.228Z,205.70
2022-12-25T01:10:17.186Z,205.50
2022-12-25T01:11:17.175Z,187.10
2022-12-25T01:12:17.164Z,203.00
2022-12-25T01:13:17.152Z,206.00
2022-12-25T01:14:17.146Z,207.40
2022-12-25T01:15:17.132Z,210.40
2022-12-25T01:16:17.165Z,195.90
2022-12-25T01:17:17.115Z,199.50
2022-12-25T01:18:17.099Z,198.90
2022-12-25T01:19:17.086Z,201.60
2022-12-25T01:20:17.076Z,185.60
2022-12-25T01:21:17.075Z,191.50
2022-12-25T01:22:17.059Z,191.00
2022-12-25T01:23:17.083Z,185.70
2022-12-25T01:24:17.035Z,192.80
2022-12-25T01:25:17.022Z,210.90
2022-12-25T01:26:17.013Z,200.00
2022-12-25T01:27:17.000Z,195.40
2022-12-25T01:28:16.993Z,199.10
2022-12-25T01:29:16.981Z,184.40
2022-12-25T01:30:16.999Z,198.40
2022-12-25T01:31:17.028Z,201.10
2022-12-25T01:32:16.946Z,197.20
2022-12-25T01:33:16.948Z,201.00
2022-12-25T01:34:16.924Z,211.00
2022-12-25T01:35:16.927Z,219.50
2022-12-25T01:36:16.921Z,200.60
2022-12-25T01:37:16.895Z,190.50
2022-12-25T01:38:16.881Z,205.00
2022-12-25T01:39:16.873Z,187.90
2022-12-25T01:40:16.864Z,179.40
2022-12-25T01:41:16.850Z,182.70
2022-12-25T01:42:16.837Z,207.90
2022-12-25T01:43:18.746Z,201.70
2022-12-25T01:44:16.820Z,207.20
2022-12-25T01:45:16.802Z,189.10
2022-12-25T01:46:16.869Z,204.90
2022-12-25T01:47:16.895Z,206.20
2022-12-25T01:48:16.769Z,212.90
2022-12-25T01:49:16.759Z,203.10
2022-12-25T01:50:16.752Z,220.30
2022-12-25T01:51:16.739Z,210.20
2022-12-25T01:52:21.745Z,212.70
2022-12-25T01:53:16.987Z,207.00
2022-12-25T01:54:16.711Z,206.40
2022-12-25T01:55:16.690Z,202.30
2022-12-25T01:56:16.689Z,192.60
2022-12-25T01:57:16.678Z,202.60
2022-12-25T01:58:16.656Z,203.20
2022-12-25T01:59:16.645Z,195.70
2022-12-25T02:00:16.638Z,211.20
2022-12-25T02:01:16.722Z,199.70
2022-12-25T02:02:16.688Z,208.90
2022-12-25T02:03:16.675Z,211.10
2022-12-25T02:04:16.592Z,193.30
2022-12-25T02:05:16.577Z,204.40
2022-12-25T02:06:16.572Z,201.20
2022-12-25T02:07:16.555Z,184.90
2022-12-25T02:08:16.723Z,224.20
2022-12-25T02:09:16.533Z,201.10
2022-12-25T02:10:16.525Z,206.00
2022-12-25T02:11:16.524Z,203.40
2022-12-25T02:12:16.500Z,193.10
2022-12-25T02:13:16.491Z,189.30
2022-12-25T02:14:16.479Z,183.50
2022-12-25T02:15:16.474Z,183.50
2022-12-25T02:16:16.526Z,201.10
2022-12-25T02:17:16.471Z,183.00
2022-12-25T02:18:16.432Z,193.80
2022-12-25T02:19:16.425Z,199.30
2022-12-25T02:20:16.407Z,192.60
2022-12-25T02:21:16.400Z,206.90
2022-12-25T02:22:16.388Z,184.40
2022-12-25T02:23:16.377Z,177.70
2022-12-25T02:24:16.362Z,199.30
2022-12-25T02:25:16.350Z,198.80
2022-12-25T02:26:16.365Z,213.90
2022-12-25T02:27:16.342Z,212.00
2022-12-25T02:28:16.319Z,161.40
2022-12-25T02:29:16.309Z,175.30
2022-12-25T02:30:16.297Z,193.00
2022-12-25T02:31:16.309Z,193.00
2022-12-25T02:32:16.341Z,180.60
2022-12-25T02:33:16.260Z,181.80
2022-12-25T02:34:16.250Z,190.20
2022-12-25T02:35:16.257Z,217.40
2022-12-25T02:36:16.226Z,220.80
2022-12-25T02:37:16.219Z,180.70
2022-12-25T02:38:16.233Z,194.40
2022-12-25T02:39:16.197Z,196.30
2022-12-25T02:40:16.177Z,189.90
2022-12-25T02:41:16.171Z,270.80
2022-12-25T02:42:16.175Z,158.10
2022-12-25T02:43:16.152Z,175.60
2022-12-25T02:44:16.135Z,206.10
2022-12-25T02:45:16.133Z,150.10
2022-12-25T02:46:16.167Z,216.90
2022-12-25T02:47:16.100Z,219.80
2022-12-25T02:48:16.091Z,185.90
2022-12-25T02:49:16.092Z,184.30
2022-12-25T02:50:16.074Z,191.80
2022-12-25T02:51:16.050Z,167.40
2022-12-25T02:52:16.048Z,170.70
2022-12-25T02:53:16.030Z,171.40
2022-12-25T02:54:16.022Z,192.90
2022-12-25T02:55:16.007Z,201.80
2022-12-25T02:56:16.004Z,219.00
2022-12-25T02:57:15.982Z,229.90
2022-12-25T02:58:15.972Z,206.80
2022-12-25T02:59:15.960Z,208.30
2022-12-25T03:00:15.950Z,202.70
2022-12-25T03:01:16.104Z,202.50
2022-12-25T03:02:15.954Z,206.90
2022-12-25T03:03:15.977Z,214.60
2022-12-25T03:04:15.902Z,188.40
2022-12-25T03:05:15.891Z,185.10
2022-12-25T03:06:15.881Z,181.20
2022-12-25T03:07:15.869Z,180.70
2022-12-25T03:08:15.861Z,189.00
2022-12-25T03:09:15.844Z,209.30
2022-12-25T03:10:15.837Z,192.60
2022-12-25T03:11:15.822Z,221.90
2022-12-25T03:12:15.814Z,212.90
2022-12-25T03:13:15.798Z,208.40
2022-12-25T03:14:15.787Z,215.50
2022-12-25T03:15:15.775Z,221.70
2022-12-25T03:16:15.808Z,213.50
2022-12-25T03:17:15.749Z,210.60
2022-12-25T03:18:15.741Z,190.30
2022-12-25T03:19:15.728Z,210.30
2022-12-25T03:20:15.716Z,205.40
2022-12-25T03:21:15.705Z,205.70
2022-12-25T03:22:15.693Z,193.00
2022-12-25T03:23:15.685Z,216.10
2022-12-25T03:24:15.671Z,194.10
2022-12-25T03:25:15.679Z,201.90
2022-12-25T03:26:15.644Z,214.20
2022-12-25T03:27:15.633Z,215.90
2022-12-25T03:28:15.624Z,198.70
2022-12-25T03:29:15.613Z,206.80
2022-12-25T03:30:15.606Z,199.70
2022-12-25T03:31:15.646Z,183.70
2022-12-25T03:32:15.596Z,202.30
2022-12-25T03:33:43.319Z,208.00
2022-12-25T03:34:15.555Z,194.00
2022-12-25T03:35:15.540Z,166.30
2022-12-25T03:36:15.533Z,204.40
2022-12-25T03:37:15.519Z,211.90
2022-12-25T03:38:15.504Z,206.70
2022-12-25T03:39:15.492Z,222.90
2022-12-25T03:40:15.480Z,220.00
2022-12-25T03:41:15.477Z,250.50
2022-12-25T03:42:15.457Z,193.90
2022-12-25T03:43:15.449Z,234.20
2022-12-25T03:44:15.434Z,205.70
2022-12-25T03:45:15.424Z,221.50
2022-12-25T03:46:15.434Z,232.70
2022-12-25T03:47:15.399Z,195.40
2022-12-25T03:48:15.388Z,197.00
2022-12-25T03:49:15.377Z,226.20
2022-12-25T03:50:15.381Z,226.70
2022-12-25T03:51:15.362Z,251.60
2022-12-25T03:52:15.340Z,234.50
2022-12-25T03:53:15.332Z,214.10
2022-12-25T03:54:15.332Z,183.90
2022-12-25T03:55:15.309Z,185.00
2022-12-25T03:56:15.293Z,189.90
2022-12-25T03:57:15.288Z,187.40
2022-12-25T03:58:15.279Z,228.80
2022-12-25T03:59:21.078Z,170.20
2022-12-25T04:00:15.247Z,202.70
2022-12-25T04:01:15.346Z,183.60
2022-12-25T04:02:15.438Z,193.70
2022-12-25T04:03:15.252Z,183.00
2022-12-25T04:04:15.202Z,216.80
2022-12-25T04:05:15.190Z,244.10
2022-12-25T04:06:15.175Z,188.80
2022-12-25T04:07:15.353Z,215.10
2022-12-25T04:08:15.145Z,181.00
2022-12-25T04:09:15.161Z,204.00
2022-12-25T04:10:15.139Z,215.60
2022-12-25T04:11:15.120Z,184.20
2022-12-25T04:12:15.105Z,191.30
2022-12-25T04:13:15.095Z,189.80
2022-12-25T04:14:15.079Z,193.90
2022-12-25T04:15:15.080Z,230.30
2022-12-25T04:16:15.175Z,238.30
2022-12-25T04:17:15.182Z,224.20
2022-12-25T04:18:15.051Z,229.10
2022-12-25T04:19:15.018Z,213.10
2022-12-25T04:20:15.165Z,195.10
2022-12-25T04:21:14.996Z,220.30
2022-12-25T04:22:15.011Z,216.90
2022-12-25T04:23:14.971Z,177.60
2022-12-25T04:24:14.962Z,187.80
2022-12-25T04:25:14.951Z,238.30
2022-12-25T04:26:14.943Z,242.70
2022-12-25T04:27:15.055Z,246.70
2022-12-25T04:28:14.913Z,216.80
2022-12-25T04:29:14.905Z,204.40
2022-12-25T04:30:14.888Z,206.90
2022-12-25T04:31:14.919Z,224.70
2022-12-25T04:32:14.867Z,214.80
2022-12-25T04:33:14.853Z,182.20
2022-12-25T04:34:14.842Z,180.70
2022-12-25T04:35:14.825Z,212.70
2022-12-25T04:36:14.833Z,189.10
2022-12-25T04:37:14.833Z,206.00
2022-12-25T04:38:14.803Z,221.90
2022-12-25T04:39:14.790Z,191.40
2022-12-25T04:40:14.785Z,220.60
2022-12-25T04:41:14.759Z,223.70
2022-12-25T04:42:14.752Z,253.10
2022-12-25T04:43:14.732Z,211.90
2022-12-25T04:44:14.721Z,220.00
2022-12-25T04:45:14.719Z,179.70
2022-12-25T04:46:14.726Z,186.70
2022-12-25T04:47:14.685Z,194.20
2022-12-25T04:48:14.674Z,200.30
2022-12-25T04:49:14.663Z,195.20
2022-12-25T04:50:14.647Z,188.10
2022-12-25T04:51:14.633Z,174.40
2022-12-25T04:52:14.624Z,174.10
2022-12-25T04:53:14.617Z,184.50
2022-12-25T04:54:14.604Z,175.40
2022-12-25T04:55:14.587Z,185.10
2022-12-25T04:56:14.579Z,183.10
2022-12-25T04:57:14.565Z,191.90
2022-12-25T04:58:14.559Z,183.70
2022-12-25T04:59:14.545Z,163.40
2022-12-25T05:00:14.525Z,165.70
2022-12-25T05:01:14.695Z,179.00
2022-12-25T05:02:14.630Z,219.40
2022-12-25T05:03:15.559Z,219.80
2022-12-25T05:04:14.487Z,193.40
2022-12-25T05:05:14.467Z,208.20
2022-12-25T05:06:14.460Z,191.60
2022-12-25T05:07:14.444Z,194.00
2022-12-25T05:08:14.431Z,191.00
2022-12-25T05:09:14.423Z,174.80
2022-12-25T05:10:14.414Z,188.50
2022-12-25T05:11:14.394Z,227.50
2022-12-25T05:12:14.379Z,187.30
2022-12-25T05:13:14.373Z,215.40
2022-12-25T05:14:14.361Z,219.70
2022-12-25T05:15:14.351Z,184.80
2022-12-25T05:16:14.400Z,225.60
2022-12-25T05:17:14.322Z,180.20
2022-12-25T05:18:14.310Z,181.50
2022-12-25T05:19:14.298Z,185.50
2022-12-25T05:20:14.288Z,192.70
2022-12-25T05:21:14.274Z,205.40
2022-12-25T05:22:14.261Z,178.90
2022-12-25T05:23:14.249Z,205.40
2022-12-25T05:24:14.237Z,164.80
2022-12-25T05:25:14.222Z,167.20
2022-12-25T05:26:14.224Z,212.00
2022-12-25T05:27:14.198Z,170.40
2022-12-25T05:28:14.188Z,174.00
2022-12-25T05:29:14.179Z,187.40
2022-12-25T05:30:14.164Z,176.80
2022-12-25T05:31:14.193Z,170.00
2022-12-25T05:32:14.149Z,164.20
2022-12-25T05:33:14.133Z,172.60
2022-12-25T05:34:14.113Z,177.20
2022-12-25T05:35:14.111Z,181.40
2022-12-25T05:36:14.089Z,174.80
2022-12-25T05:37:14.078Z,188.70
2022-12-25T05:38:14.066Z,204.30
2022-12-25T05:39:14.051Z,216.40
2022-12-25T05:40:14.060Z,239.90
2022-12-25T05:41:14.025Z,170.80
2022-12-25T05:42:14.021Z,169.40
2022-12-25T05:43:14.004Z,187.20
2022-12-25T05:44:13.999Z,259.50
2022-12-25T05:45:13.979Z,198.00
2022-12-25T05:46:14.044Z,244.40
2022-12-25T05:47:13.974Z,232.70
2022-12-25T05:48:14.235Z,236.60
2022-12-25T05:49:13.953Z,379.80
2022-12-25T05:50:14.070Z,457.80
2022-12-25T05:51:14.278Z,429.90
2022-12-25T05:52:14.866Z,653.90
2022-12-25T05:53:14.193Z,831.20
2022-12-25T05:54:13.969Z,193.50
2022-12-25T05:55:15.569Z,175.30
2022-12-25T05:56:13.967Z,186.00
2022-12-25T05:57:14.136Z,186.70
2022-12-25T05:58:14.170Z,185.90
2022-12-25T05:59:13.935Z,154.50
2022-12-25T06:00:13.795Z,193.40
2022-12-25T06:01:13.781Z,182.00
2022-12-25T06:02:13.860Z,192.10
2022-12-25T06:03:13.862Z,218.60
2022-12-25T06:04:13.816Z,218.50
2022-12-25T06:05:13.732Z,196.30
2022-12-25T06:06:13.719Z,169.60
2022-12-25T06:07:13.704Z,203.10
2022-12-25T06:08:13.691Z,199.10
2022-12-25T06:09:13.682Z,180.30
2022-12-25T06:10:13.668Z,346.80
2022-12-25T06:11:13.656Z,295.50
2022-12-25T06:12:13.645Z,247.70
2022-12-25T06:13:13.641Z,266.20
2022-12-25T06:14:13.638Z,304.60
2022-12-25T06:15:13.605Z,296.50
2022-12-25T06:16:13.649Z,286.20
2022-12-25T06:17:13.590Z,272.20
2022-12-25T06:18:13.571Z,178.10
2022-12-25T06:19:13.554Z,195.70
2022-12-25T06:20:13.545Z,160.00
2022-12-25T06:21:13.539Z,192.00
2022-12-25T06:22:13.525Z,158.80
2022-12-25T06:23:13.537Z,177.90
2022-12-25T06:24:20.817Z,174.20
2022-12-25T06:25:13.483Z,189.20
2022-12-25T06:26:13.467Z,177.40
2022-12-25T06:27:13.459Z,180.70
2022-12-25T06:28:13.447Z,189.00
2022-12-25T06:29:13.433Z,165.80
2022-12-25T06:30:13.417Z,158.70
2022-12-25T06:31:13.436Z,205.00
2022-12-25T06:32:13.391Z,168.20
2022-12-25T06:33:13.380Z,178.20
2022-12-25T06:34:13.369Z,169.30
2022-12-25T06:35:13.352Z,172.10
2022-12-25T06:36:13.337Z,182.10
2022-12-25T06:37:13.332Z,193.60
2022-12-25T06:38:13.317Z,283.50
2022-12-25T06:39:13.304Z,304.40
2022-12-25T06:40:13.290Z,220.90
2022-12-25T06:41:13.285Z,186.10
2022-12-25T06:42:13.266Z,273.40
2022-12-25T06:43:13.278Z,275.40
2022-12-25T06:44:13.250Z,243.20
2022-12-25T06:45:13.226Z,225.30
2022-12-25T06:46:13.310Z,253.10
2022-12-25T06:47:13.204Z,197.30
2022-12-25T06:48:13.189Z,210.90
2022-12-25T06:49:13.185Z,223.40
2022-12-25T06:50:13.165Z,194.00
2022-12-25T06:51:13.152Z,177.60
2022-12-25T06:52:13.141Z,207.70
2022-12-25T06:53:13.192Z,177.80
2022-12-25T06:54:13.115Z,183.40
2022-12-25T06:55:13.107Z,204.30
2022-12-25T06:56:13.094Z,192.60
2022-12-25T06:57:13.076Z,205.20
2022-12-25T06:58:13.064Z,236.10
2022-12-25T06:59:13.052Z,204.50
2022-12-25T07:00:13.040Z,225.40
2022-12-25T07:01:13.092Z,275.30
2022-12-25T07:02:13.090Z,204.30
2022-12-25T07:03:13.090Z,226.10
2022-12-25T07:04:12.996Z,194.00
2022-12-25T07:05:12.974Z,229.70
2022-12-25T07:06:12.970Z,249.50
2022-12-25T07:07:12.948Z,173.10
2022-12-25T07:08:12.937Z,210.90
2022-12-25T07:09:12.930Z,182.60
2022-12-25T07:10:12.916Z,194.10
2022-12-25T07:11:12.900Z,195.70
2022-12-25T07:12:12.885Z,165.80
2022-12-25T07:13:12.876Z,206.40
2022-12-25T07:14:12.863Z,245.90
2022-12-25T07:15:12.848Z,228.50
2022-12-25T07:16:12.931Z,211.30
2022-12-25T07:17:12.825Z,233.30
2022-12-25T07:18:13.008Z,188.30
2022-12-25T07:19:12.797Z,221.30
2022-12-25T07:20:12.807Z,213.00
2022-12-25T07:21:12.778Z,240.50
2022-12-25T07:22:12.758Z,209.70
2022-12-25T07:23:12.755Z,231.00
2022-12-25T07:24:12.733Z,230.10
2022-12-25T07:25:12.725Z,235.20
2022-12-25T07:26:12.709Z,226.30
2022-12-25T07:27:12.696Z,221.20
2022-12-25T07:28:12.684Z,226.50
2022-12-25T07:29:12.678Z,223.50
2022-12-25T07:30:12.663Z,218.00
2022-12-25T07:31:12.765Z,223.50
2022-12-25T07:32:12.682Z,229.90
2022-12-25T07:33:12.628Z,224.20
2022-12-25T07:34:12.614Z,217.80
2022-12-25T07:35:12.594Z,231.10
2022-12-25T07:36:13.379Z,223.80
2022-12-25T07:37:12.571Z,218.90
2022-12-25T07:38:12.558Z,213.30
2022-12-25T07:39:12.546Z,224.10
2022-12-25T07:40:12.531Z,219.70
2022-12-25T07:41:12.521Z,226.90
2022-12-25T07:42:12.503Z,239.70
2022-12-25T07:43:12.496Z,214.40
2022-12-25T07:44:12.488Z,244.90
2022-12-25T07:45:12.474Z,226.90
2022-12-25T07:46:12.577Z,212.10
2022-12-25T07:47:12.446Z,222.50
2022-12-25T07:48:16.701Z,232.70
2022-12-25T07:49:12.614Z,241.00
2022-12-25T07:50:12.412Z,217.60
2022-12-25T07:51:12.396Z,240.10
2022-12-25T07:52:12.382Z,230.30
2022-12-25T07:53:12.367Z,216.20
2022-12-25T07:54:12.392Z,223.50
2022-12-25T07:55:12.347Z,264.80
2022-12-25T07:56:12.332Z,221.30
2022-12-25T07:57:12.346Z,254.80
2022-12-25T07:58:12.311Z,242.70
2022-12-25T07:59:12.306Z,235.80
2022-12-25T08:00:12.284Z,244.70
2022-12-25T08:01:12.420Z,247.50
2022-12-25T08:02:12.541Z,236.10
2022-12-25T08:03:12.452Z,251.50
2022-12-25T08:04:12.317Z,296.70
2022-12-25T08:05:12.223Z,231.10
2022-12-25T08:06:12.206Z,283.20
2022-12-25T08:07:12.194Z,268.60
2022-12-25T08:08:12.191Z,245.10
2022-12-25T08:09:12.173Z,273.50
2022-12-25T08:10:12.156Z,257.40
2022-12-25T08:11:12.155Z,247.00
2022-12-25T08:12:12.132Z,272.80
2022-12-25T08:13:14.554Z,258.40
2022-12-25T08:14:12.107Z,242.90
2022-12-25T08:15:12.147Z,273.40
2022-12-25T08:16:12.228Z,246.50
2022-12-25T08:17:12.094Z,239.50
2022-12-25T08:18:12.059Z,289.60
2022-12-25T08:19:12.056Z,284.10
2022-12-25T08:20:12.037Z,314.00
2022-12-25T08:21:12.047Z,285.40
2022-12-25T08:22:12.017Z,268.30
2022-12-25T08:23:12.001Z,251.30
2022-12-25T08:24:11.984Z,236.20
2022-12-25T08:25:11.976Z,246.20
2022-12-25T08:26:11.960Z,300.80
2022-12-25T08:27:11.948Z,274.70
2022-12-25T08:28:11.936Z,252.30
2022-12-25T08:29:11.925Z,252.70
2022-12-25T08:30:11.914Z,272.40
2022-12-25T08:31:12.034Z,229.80
2022-12-25T08:32:11.895Z,278.30
2022-12-25T08:33:11.878Z,259.30
2022-12-25T08:34:11.892Z,299.40
2022-12-25T08:35:11.848Z,275.90
2022-12-25T08:36:11.848Z,339.00
2022-12-25T08:37:11.826Z,263.30
2022-12-25T08:38:11.822Z,359.90
2022-12-25T08:39:11.998Z,339.70
2022-12-25T08:40:11.792Z,404.20
2022-12-25T08:41:11.786Z,527.00
2022-12-25T08:42:11.783Z,491.10
2022-12-25T08:43:11.804Z,453.40
2022-12-25T08:44:11.757Z,527.80
2022-12-25T08:45:11.729Z,580.80
2022-12-25T08:46:11.780Z,494.40
2022-12-25T08:47:11.703Z,542.10
2022-12-25T08:48:11.693Z,660.90
2022-12-25T08:49:11.683Z,574.90
2022-12-25T08:50:11.669Z,797.30
2022-12-25T08:51:11.657Z,626.50
2022-12-25T08:52:11.654Z,771.20
2022-12-25T08:53:11.633Z,752.70
2022-12-25T08:54:11.635Z,768.90
2022-12-25T08:55:11.607Z,821.10
2022-12-25T08:56:11.598Z,836.90
2022-12-25T08:57:11.605Z,810.10
2022-12-25T08:58:11.580Z,528.70
2022-12-25T08:59:11.561Z,603.10
2022-12-25T09:00:11.550Z,833.60
2022-12-25T09:01:11.596Z,794.30
2022-12-25T09:02:11.684Z,790.00
2022-12-25T09:03:11.577Z,827.30
2022-12-25T09:04:11.540Z,861.50
2022-12-25T09:05:11.488Z,589.60
2022-12-25T09:06:11.481Z,747.90
2022-12-25T09:07:11.464Z,888.00
2022-12-25T09:08:11.460Z,888.10
2022-12-25T09:09:11.518Z,832.10
2022-12-25T09:10:11.430Z,763.70
2022-12-25T09:11:11.435Z,1028.50
2022-12-25T09:12:11.400Z,902.20
2022-12-25T09:13:11.424Z,796.60
2022-12-25T09:14:11.389Z,845.40
2022-12-25T09:15:11.370Z,880.20
2022-12-25T09:16:11.396Z,523.70
2022-12-25T09:17:11.353Z,753.70
2022-12-25T09:18:11.333Z,996.00
2022-12-25T09:19:11.320Z,813.60
2022-12-25T09:20:11.311Z,871.40
2022-12-25T09:21:11.304Z,912.00
2022-12-25T09:22:11.292Z,802.60
2022-12-25T09:23:14.044Z,736.00
2022-12-25T09:24:11.263Z,728.30
2022-12-25T09:25:11.251Z,710.00
2022-12-25T09:26:11.253Z,768.20
2022-12-25T09:27:11.234Z,856.80
2022-12-25T09:28:11.219Z,777.00
2022-12-25T09:29:11.202Z,644.00
2022-12-25T09:30:11.199Z,883.90
2022-12-25T09:31:11.212Z,719.70
2022-12-25T09:32:11.164Z,757.40
2022-12-25T09:33:11.177Z,752.80
2022-12-25T09:34:16.947Z,861.10
2022-12-25T09:35:11.190Z,666.30
2022-12-25T09:36:11.209Z,672.40
2022-12-25T09:37:11.134Z,749.90
2022-12-25T09:38:11.099Z,666.80
2022-12-25T09:39:11.096Z,759.40
2022-12-25T09:40:11.076Z,712.30
2022-12-25T09:41:11.066Z,569.60
2022-12-25T09:42:11.059Z,620.40
2022-12-25T09:43:11.039Z,560.70
2022-12-25T09:44:11.027Z,516.20
2022-12-25T09:45:11.020Z,498.50
2022-12-25T09:46:11.103Z,504.90
2022-12-25T09:47:11.008Z,467.10
2022-12-25T09:48:11.001Z,499.60
2022-12-25T09:49:10.981Z,458.80
2022-12-25T09:50:11.045Z,541.90
2022-12-25T09:51:10.951Z,478.50
2022-12-25T09:52:10.940Z,423.10
2022-12-25T09:53:10.933Z,493.60
2022-12-25T09:54:10.939Z,473.30
2022-12-25T09:55:14.820Z,516.90
2022-12-25T09:56:10.899Z,516.30
2022-12-25T09:57:10.891Z,478.10
2022-12-25T09:58:10.903Z,518.20
2022-12-25T09:59:10.863Z,490.00
2022-12-25T10:00:10.850Z,518.00
2022-12-25T10:01:10.864Z,556.40
2022-12-25T10:02:10.945Z,527.60
2022-12-25T10:03:10.990Z,442.50
2022-12-25T10:04:10.803Z,504.50
2022-12-25T10:05:10.795Z,519.90
2022-12-25T10:06:10.785Z,520.80
2022-12-25T10:07:10.785Z,513.80
2022-12-25T10:08:10.779Z,553.20
2022-12-25T10:09:11.672Z,677.10
2022-12-25T10:10:10.754Z,567.70
2022-12-25T10:11:10.727Z,572.10
2022-12-25T10:12:10.719Z,539.90
2022-12-25T10:13:10.722Z,509.80
2022-12-25T10:14:10.697Z,587.50
2022-12-25T10:15:10.681Z,622.60
2022-12-25T10:16:10.732Z,574.40
2022-12-25T10:17:10.664Z,592.40
2022-12-25T10:18:10.649Z,585.10
2022-12-25T10:19:10.645Z,536.00
2022-12-25T10:20:10.626Z,537.50
2022-12-25T10:21:13.203Z,498.00
2022-12-25T10:22:10.605Z,488.20
2022-12-25T10:23:10.596Z,528.50
2022-12-25T10:24:10.584Z,510.20
2022-12-25T10:25:10.573Z,493.30
2022-12-25T10:26:10.562Z,473.70
2022-12-25T10:27:10.559Z,472.50
2022-12-25T10:28:10.542Z,452.10
2022-12-25T10:29:10.529Z,516.50
2022-12-25T10:30:10.519Z,492.60
2022-12-25T10:31:10.526Z,471.10
2022-12-25T10:32:10.498Z,475.60
2022-12-25T10:33:16.670Z,461.10
2022-12-25T10:34:10.474Z,464.80
2022-12-25T10:35:10.466Z,449.20
2022-12-25T10:36:10.452Z,431.00
2022-12-25T10:37:10.444Z,462.10
2022-12-25T10:38:10.428Z,476.90
2022-12-25T10:39:10.419Z,486.70
2022-12-25T10:40:10.410Z,501.70
2022-12-25T10:41:10.400Z,478.10
2022-12-25T10:42:10.493Z,474.60
2022-12-25T10:43:10.440Z,466.60
2022-12-25T10:44:10.369Z,420.70
2022-12-25T10:45:10.360Z,405.50
2022-12-25T10:46:10.374Z,386.60
2022-12-25T10:47:10.350Z,387.50
2022-12-25T10:48:10.325Z,402.50
2022-12-25T10:49:10.315Z,371.70
2022-12-25T10:50:10.309Z,382.40
2022-12-25T10:51:10.293Z,388.10
2022-12-25T10:52:10.281Z,402.30
2022-12-25T10:53:10.272Z,393.40
2022-12-25T10:54:10.259Z,379.60
2022-12-25T10:55:10.251Z,435.50
2022-12-25T10:56:10.239Z,399.70
2022-12-25T10:57:10.229Z,431.60
2022-12-25T10:58:10.217Z,400.20
2022-12-25T10:59:10.206Z,420.00
2022-12-25T11:00:10.204Z,443.10
2022-12-25T11:01:10.186Z,421.20
2022-12-25T11:02:10.378Z,412.60
2022-12-25T11:03:10.289Z,428.60
2022-12-25T11:04:10.193Z,440.90
2022-12-25T11:05:10.151Z,393.00
2022-12-25T11:06:10.135Z,437.10
2022-12-25T11:07:10.119Z,440.10
2022-12-25T11:08:10.110Z,432.60
2022-12-25T11:09:10.100Z,418.00
2022-12-25T11:10:10.103Z,427.80
2022-12-25T11:11:10.079Z,440.00
2022-12-25T11:12:10.064Z,404.40
2022-12-25T11:13:10.060Z,415.70
2022-12-25T11:14:10.044Z,410.80
2022-12-25T11:15:10.039Z,430.60
2022-12-25T11:16:10.057Z,412.90
2022-12-25T11:17:10.035Z,414.50
2022-12-25T11:18:10.007Z,413.20
2022-12-25T11:19:09.991Z,401.20
2022-12-25T11:20:09.979Z,411.70
2022-12-25T11:21:09.972Z,386.10
2022-12-25T11:22:09.959Z,395.50
2022-12-25T11:23:09.950Z,391.30
2022-12-25T11:24:09.939Z,375.30
2022-12-25T11:25:09.929Z,371.30
2022-12-25T11:26:09.916Z,389.00
2022-12-25T11:27:09.909Z,384.70
2022-12-25T11:28:09.899Z,376.10
2022-12-25T11:29:09.887Z,375.70
2022-12-25T11:30:12.700Z,397.60
2022-12-25T11:31:09.958Z,367.90
2022-12-25T11:32:09.853Z,382.80
2022-12-25T11:33:09.842Z,392.70
2022-12-25T11:34:09.829Z,402.10
2022-12-25T11:35:09.820Z,409.40
2022-12-25T11:36:09.810Z,421.80
2022-12-25T11:37:09.801Z,413.70
2022-12-25T11:38:09.788Z,409.30
2022-12-25T11:39:09.777Z,434.90
2022-12-25T11:40:09.771Z,458.00
2022-12-25T11:41:09.758Z,393.60
2022-12-25T11:42:09.748Z,425.30
2022-12-25T11:43:09.743Z,425.60
2022-12-25T11:44:09.731Z,436.20
2022-12-25T11:45:09.716Z,420.20
2022-12-25T11:46:09.722Z,426.50
2022-12-25T11:47:09.696Z,423.20
2022-12-25T11:48:09.684Z,442.40
2022-12-25T11:49:09.680Z,416.90
2022-12-25T11:50:09.662Z,441.20
2022-12-25T11:51:09.660Z,434.60
2022-12-25T11:52:09.651Z,403.30
2022-12-25T11:53:09.632Z,375.50
2022-12-25T11:54:09.619Z,375.30
2022-12-25T11:55:09.610Z,391.20
2022-12-25T11:56:09.597Z,369.20
2022-12-25T11:57:09.587Z,351.10
2022-12-25T11:58:09.578Z,350.30
2022-12-25T11:59:13.651Z,370.70
2022-12-25T12:00:09.555Z,334.00
2022-12-25T12:01:09.544Z,369.20
2022-12-25T12:02:09.623Z,383.70
2022-12-25T12:03:09.704Z,386.10
2022-12-25T12:04:09.596Z,384.10
2022-12-25T12:05:09.498Z,374.50
2022-12-25T12:06:09.484Z,413.10
2022-12-25T12:07:09.479Z,430.20
2022-12-25T12:08:09.460Z,416.70
2022-12-25T12:09:09.474Z,428.10
2022-12-25T12:10:09.442Z,446.50
2022-12-25T12:11:09.436Z,440.80
2022-12-25T12:12:09.420Z,444.50
2022-12-25T12:13:09.407Z,438.40
2022-12-25T12:14:09.397Z,448.50
2022-12-25T12:15:09.386Z,413.70
2022-12-25T12:16:09.382Z,434.40
2022-12-25T12:17:09.363Z,447.70
2022-12-25T12:18:09.355Z,443.20
2022-12-25T12:19:09.345Z,438.00
2022-12-25T12:20:09.334Z,452.40
2022-12-25T12:21:09.325Z,448.50
2022-12-25T12:22:09.311Z,446.00
2022-12-25T12:23:09.299Z,447.90
2022-12-25T12:24:09.293Z,440.20
2022-12-25T12:25:09.282Z,444.40
2022-12-25T12:26:09.278Z,428.50
2022-12-25T12:27:09.262Z,450.80
2022-12-25T12:28:09.241Z,414.30